Lake Junaluska, NC (28745)

10:58 AM EST on December 21, 2014 (GMT -0500)
Utah Mountain Rockface | Change Station
CLOSE
Current Station
Personal Weather Station
Location: Waynesville, NC
Elevation: 3500 ft
Nearby Weather Stations

Elev 3500 ft 35.55 °N, 82.98 °W | Updated 3 seconds ago

Overcast
Overcast
41.1 °F
Feels Like 41 °F
N
2.0
Wind Variable Wind from ESE
Gusts 5.0 mph

Today
High -- | Low -- °F
--% Chance of Precip.
Yesterday
High -- | Low -- °F
Precip. -- in
7:37 AM 5:22 PM
Waning Crescent, 0% visible
Pressure 30.24 in
Visibility 9.0 miles
Clouds Few 600 ft
Overcast 1900 ft
Windchill 41 °F
Dew Point 38 °F
Humidity 88%
Rainfall 0.00 in
Snow Depth Not available.
UV 0 out of 12
Pollen .70 out of 12
Air Quality Not available.
Flu Activity Not available.
METAR KAVL 211454Z 19004KT 9SM FEW006 OVC019 05/03 A3023 RMK AO2 SLP240 T00500033 53006

More Conditions Fewer Conditions

Pressure 30.24 in
Visibility 9.0 miles
Clouds Few 600 ft
Overcast 1900 ft
Windchill 41 °F
Dew Point 38 °F
Humidity 88%
Rainfall 0.00 in
Snow Depth Not available.
UV 0 out of 12
Pollen .70 out of 12
Air Quality Not available.
Flu Activity Not available.
METAR KAVL 211454Z 19004KT 9SM FEW006 OVC019 05/03 A3023 RMK AO2 SLP240 T00500033 53006

More Conditions Fewer Conditions

10-Day Weather Forecast

Almanac

Astronomy

Dec. 21, 2014 Rise Set
Actual Time
Civil Twilight
Nautical Twilight
Astronomical Twilight
Moon
Length of Visible Light
Length of Day
Tomorrow will be .
, % of the Moon is Illuminated

Today's Extremes

State Highs State Lows

Community

WunderPhotos

Upload Photos

1,779,412 photos uploaded!

WunderBlogs® & News

Nearby

Air Quality

  Air Quality AQ Index Pollutant
Not available.

Snow Depth

Station Depth Elevation

Earthquake Activity

City Distance Mag. Time & Date
Minimum magnitude displayed is 2.5.

Coastal Water Temperatures

Place Temperature

Nearby Weather Stations